Latest Weather Observations for Mallacoota

IDV60801

Issued at 12:52 pm EST Saturday 1 October 2022 (issued every 10 minutes, with the page automatically refreshed every 10 minutes)

About weather observations | Map of weather stations | Latest weather observations for VIC | Other Formats
Station Details ID: 084084 Name: MALLACOOTA Lat: -37.60 Lon: 149.73 Height: 22.0 m
Data from the previous 72 hours. | See also: Recent months at Mallacoota
Date/Time
EST
Temp
°C
App
Temp
°C
Dew
Point
°C
Rel
Hum
%
Delta-T
°C
Wind Press
QNH
hPa
Press
MSL
hPa
Rain since
9am
mm
Dir  Spd
km/h
Gust
km/h
Spd
kts
Gust
kts
01/12:30pm 14.5 10.8 7.8 64 3.3 E 17 24 9 13 1025.5 1025.5 0.0
01/12:00pm 14.3 10.7 8.3 67 3.0 E 17 26 9 14 1025.9 1025.9 0.0
01/11:30am 14.9 11.9 9.3 69 2.9 ESE 15 22 8 12 1026.1 1026.1 0.0
01/11:00am 14.4 11.0 9.0 70 2.7 ESE 17 24 9 13 1026.4 1026.4 0.0
01/10:30am 13.9 11.0 8.3 69 2.8 ESE 13 20 7 11 1026.8 1026.8 0.0
01/10:00am 14.3 12.4 9.1 71 2.6 ESE 9 11 5 6 1027.0 1027.0 0.0
01/09:30am 12.8 11.4 8.9 77 2.0 E 6 9 3 5 1027.3 1027.3 0.0
01/09:00am 11.7 10.3 9.6 87 1.1 WNW 7 9 4 5 1027.4 1027.4 24.8
01/08:30am 10.7 9.2 8.3 85 1.2 NNE 6 11 3 6 1027.6 1027.6 24.0
01/08:00am 11.8 9.8 8.6 81 1.6 NE 9 17 5 9 1027.6 1027.6 19.6
01/07:30am 11.3 9.8 9.0 86 1.1 W 7 9 4 5 1027.4 1027.4 19.6
01/07:00am 9.8 7.7 8.2 90 0.8 WNW 9 13 5 7 1027.4 1027.4 19.6
01/06:30am 8.6 6.2 7.2 91 0.7 WNW 9 11 5 6 1027.2 1027.2 19.6
01/06:00am 8.4 5.6 6.9 90 0.7 WNW 11 13 6 7 1027.0 1027.0 19.6
01/05:30am 8.5 6.4 6.8 89 0.8 WNW 7 11 4 6 1026.9 1026.9 19.6
01/05:00am 9.1 6.7 7.2 88 0.9 NW 9 13 5 7 1026.8 1026.8 19.6
01/04:30am 8.9 5.7 6.9 87 0.9 WNW 13 15 7 8 1026.8 1026.8 19.6
01/04:00am 9.0 6.5 6.4 84 1.2 W 9 13 5 7 1026.9 1026.9 19.6
01/03:30am 10.0 8.2 5.6 74 2.0 NW 4 9 2 5 1027.1 1027.1 19.6
01/03:00am 12.6 8.6 4.8 59 3.6 SE 15 20 8 11 1027.3 1027.3 19.6
01/02:30am 12.5 9.1 5.7 63 3.2 ESE 13 19 7 10 1027.4 1027.4 19.6
01/02:00am 12.8 9.0 5.7 62 3.3 ESE 15 20 8 11 1027.6 1027.6 19.6
01/01:30am 12.8 9.3 5.5 61 3.4 ESE 13 20 7 11 1027.8 1027.8 19.6
01/01:00am 12.5 9.0 5.4 62 3.3 E 13 17 7 9 1028.1 1028.1 19.6
01/12:30am 12.6 9.2 5.8 63 3.2 E 13 19 7 10 1028.2 1028.2 19.6
01/12:00am 12.9 8.8 6.0 63 3.2 E 17 24 9 13 1028.4 1028.4 19.6
 
Date/Time
EST
Temp
°C
App
Temp
°C
Dew
Point
°C
Rel
Hum
%
Delta-T
°C
Wind Press
QNH
hPa
Press
MSL
hPa
Rain since
9am
mm
Dir  Spd
km/h
Gust
km/h
Spd
kts
Gust
kts
30/11:30pm 13.0 9.4 6.6 65 3.1 ESE 15 22 8 12 1028.6 1028.6 19.6
30/11:00pm 12.9 9.0 5.3 60 3.5 ESE 15 20 8 11 1028.8 1028.8 19.6
30/10:30pm 12.5 8.4 6.3 66 2.9 ESE 17 22 9 12 1029.2 1029.2 19.6
30/10:00pm 12.9 9.4 7.1 68 2.8 ESE 15 20 8 11 1029.4 1029.4 19.4
30/09:30pm 12.9 9.0 6.9 67 2.9 ESE 17 26 9 14 1029.5 1029.5 19.4
30/09:00pm 12.7 8.4 7.2 69 2.6 ESE 19 26 10 14 1029.7 1029.7 19.4
30/08:30pm 13.0 8.8 7.5 69 2.7 ESE 19 26 10 14 1029.6 1029.6 19.4
30/08:00pm 13.3 8.9 6.6 64 3.2 ESE 19 28 10 15 1029.6 1029.6 19.4
30/07:30pm 13.2 9.3 7.2 67 2.9 ESE 17 22 9 12 1029.5 1029.5 19.4
30/07:00pm 13.1 8.7 6.7 65 3.1 SE 19 26 10 14 1029.3 1029.3 19.4
30/06:30pm 13.2 8.8 7.4 68 2.8 ESE 20 30 11 16 1029.3 1029.3 19.4
30/06:00pm 13.0 8.6 7.5 69 2.7 ESE 20 28 11 15 1029.2 1029.2 19.4
30/05:30pm 12.7 8.7 9.0 78 1.9 ESE 20 30 11 16 1029.2 1029.2 19.4
30/05:00pm 12.8 10.5 9.1 78 1.9 E 11 15 6 8 1029.1 1029.1 19.4
30/04:30pm 12.5 8.3 8.4 76 2.0 SE 20 30 11 16 1029.2 1029.2 19.4
30/04:00pm 12.1 6.3 9.3 83 1.4 SE 30 37 16 20 1029.1 1029.1 19.4
30/03:30pm 12.0 8.8 9.9 87 1.1 SE 17 33 9 18 1029.0 1029.0 19.4
30/03:00pm 13.2 9.5 10.0 81 1.6 ESE 20 28 11 15 1028.8 1028.8 19.2
30/02:30pm 12.0 10.2 10.9 93 0.6 SW 11 19 6 10 1029.0 1029.0 19.0
30/02:00pm 12.0 9.0 10.6 91 0.7 S 17 24 9 13 1029.3 1029.3 12.6
30/01:30pm 13.1 11.1 11.5 90 0.8 S 13 17 7 9 1029.4 1029.4 10.2
30/01:00pm 13.1 10.7 11.3 89 0.9 ESE 15 26 8 14 1029.6 1029.6 9.4
30/12:30pm 12.3 9.4 9.7 84 1.3 SE 15 26 8 14 1029.7 1029.7 6.4
30/12:00pm 13.7 10.4 9.7 77 2.0 SE 17 28 9 15 1029.8 1029.8 0.0
30/11:30am 15.8 12.4 10.6 71 2.8 SE 19 26 10 14 1029.8 1029.8 0.0
30/11:00am 15.3 10.5 10.3 72 2.6 SE 26 33 14 18 1029.9 1030.0 0.0
30/10:30am 15.5 11.9 10.5 72 2.6 SE 20 24 11 13 1030.0 1030.1 0.0
30/10:00am 15.1 10.9 9.9 71 2.7 SE 22 32 12 17 1030.1 1030.2 0.0
30/09:30am 15.4 10.7 10.6 73 2.5 SE 26 32 14 17 1030.0 1030.1 0.0
30/09:00am 14.5 10.4 10.1 75 2.3 SE 22 32 12 17 1029.9 1030.0 6.2
30/08:30am 15.0 10.4 9.6 70 2.8 SE 24 33 13 18 1029.8 1029.8 6.2
30/08:00am 14.5 10.0 9.9 74 2.4 SE 24 33 13 18 1029.5 1029.5 6.2
30/07:30am 14.7 10.2 10.1 74 2.4 SE 24 35 13 19 1029.3 1029.3 6.2
30/07:00am 13.9 8.6 9.9 77 2.1 SE 28 39 15 21 1028.9 1028.9 6.2
30/06:30am 13.9 10.2 10.1 78 2.0 SE 20 33 11 18 1028.6 1028.6 6.2
30/06:00am 13.8 10.7 10.2 79 1.9 SE 17 30 9 16 1028.3 1028.3 6.2
30/05:30am 13.7 9.9 9.7 77 2.1 SE 20 35 11 19 1027.9 1027.9 6.2
30/05:00am 13.4 8.5 9.8 79 1.8 SE 26 41 14 22 1027.6 1027.6 6.2
30/04:30am 12.9 9.9 10.6 86 1.2 SE 17 37 9 20 1027.4 1027.4 6.2
30/04:00am 13.1 10.6 11.0 87 1.1 SE 15 30 8 16 1027.2 1027.2 4.0
30/03:30am 13.2 10.1 10.2 82 1.6 S 17 24 9 13 1027.1 1027.1 3.6
30/03:00am 13.1 10.8 10.3 83 1.4 SSE 13 32 7 17 1027.0 1027.0 3.6
30/02:30am 13.8 11.8 10.2 79 1.9 SSE 11 19 6 10 1027.0 1027.0 3.6
30/02:00am 13.8 10.4 10.6 81 1.7 SE 19 37 10 20 1026.9 1026.9 3.6
30/01:30am 13.9 12.3 10.3 79 1.9 ESE 9 20 5 11 1027.0 1027.0 3.6
30/01:00am 13.8 12.1 10.0 78 2.0 SE 9 17 5 9 1027.3 1027.3 3.6
30/12:30am 13.9 11.5 10.1 78 2.0 SE 13 24 7 13 1027.2 1027.2 3.6
30/12:00am 13.5 12.0 10.5 82 1.6 SSE 9 19 5 10 1027.3 1027.3 3.6
 
Date/Time
EST
Temp
°C
App
Temp
°C
Dew
Point
°C
Rel
Hum
%
Delta-T
°C
Wind Press
QNH
hPa
Press
MSL
hPa
Rain since
9am
mm
Dir  Spd
km/h
Gust
km/h
Spd
kts
Gust
kts
29/11:30pm 13.5 11.3 9.4 76 2.1 SE 11 22 6 12 1027.4 1027.4 2.8
29/11:00pm 13.8 10.7 10.2 79 1.9 SE 17 28 9 15 1027.4 1027.4 2.8
29/10:30pm 13.8 7.8 10.0 78 2.0 SE 32 41 17 22 1027.5 1027.5 2.8
29/10:00pm 14.0 10.9 10.4 79 1.9 SE 17 24 9 13 1027.4 1027.4 2.8
29/09:30pm 14.2 12.4 11.0 81 1.7 SSE 11 20 6 11 1027.3 1027.3 2.8
29/09:00pm 13.8 12.4 10.8 82 1.6 SE 9 20 5 11 1027.2 1027.2 2.8
29/08:30pm 14.0 9.8 11.0 82 1.6 S 24 33 13 18 1026.9 1026.9 2.6
29/08:00pm 14.3 10.5 9.7 74 2.4 S 20 28 11 15 1026.7 1026.7 2.4
29/07:30pm 14.2 10.6 10.0 76 2.2 S 19 24 10 13 1026.5 1026.5 2.4
29/07:00pm 14.2 11.1 10.2 77 2.1 S 17 26 9 14 1026.1 1026.1 2.4
29/06:30pm 14.4 11.3 10.2 76 2.2 S 17 22 9 12 1025.7 1025.7 2.4
29/06:00pm 14.5 10.6 9.3 71 2.6 S 20 28 11 15 1025.4 1025.4 2.4
29/05:30pm 14.4 10.8 9.8 74 2.4 S 19 26 10 14 1025.2 1025.2 2.4
29/05:00pm 14.4 11.4 10.6 78 2.0 SSW 17 22 9 12 1025.0 1025.0 2.4
29/04:30pm 14.9 11.4 10.3 74 2.4 SSW 19 24 10 13 1024.8 1024.8 2.4
29/04:00pm 15.5 12.1 10.5 72 2.6 SSW 19 26 10 14 1024.5 1024.5 2.4
29/03:30pm 15.6 12.0 10.4 71 2.7 SSW 20 28 11 15 1024.3 1024.3 2.4
29/03:00pm 15.8 13.2 10.6 71 2.7 S 15 22 8 12 1024.3 1024.3 2.4
29/02:30pm 14.6 12.4 10.8 78 2.0 SSW 13 24 7 13 1024.3 1024.3 2.4
29/02:00pm 14.5 11.7 11.3 81 1.7 SSW 17 26 9 14 1024.2 1024.2 2.4
29/01:30pm 14.8 10.3 10.2 74 2.4 S 24 30 13 16 1024.2 1024.2 2.4
29/01:00pm 15.3 9.8 10.7 74 2.4 S 30 35 16 19 1024.0 1024.0 2.4
29/12:30pm 14.4 9.6 10.2 76 2.2 S 26 35 14 19 1023.9 1023.9 2.4
29/12:00pm 13.7 10.3 11.4 86 1.2 SSW 20 32 11 17 1023.7 1023.7 2.4
29/11:30am 13.8 10.4 11.3 85 1.3 S 20 33 11 18 1023.6 1023.6 2.2
29/11:00am 14.5 9.5 11.1 80 1.8 S 28 35 15 19 1023.3 1023.3 2.2
29/10:30am 13.5 11.7 12.1 91 0.8 SSE 13 32 7 17 1023.2 1023.2 2.0
29/10:00am 13.3 10.2 11.5 89 1.0 SSE 19 32 10 17 1023.5 1023.5 1.2
29/09:30am 13.4 10.1 11.6 89 1.0 S 20 37 11 20 1023.3 1023.3 0.4
29/09:00am 14.7 10.8 10.7 77 2.1 S 22 28 12 15 1023.1 1023.1 5.2
29/08:30am 14.6 11.4 10.0 74 2.4 SSE 17 26 9 14 1022.7 1022.7 5.2
29/08:00am 14.7 10.6 10.1 74 2.4 S 22 32 12 17 1022.5 1022.5 5.2
29/07:30am 14.6 10.5 10.0 74 2.4 S 22 32 12 17 1022.1 1022.1 5.2
29/07:00am 14.6 9.3 10.0 74 2.4 S 28 35 15 19 1021.8 1021.8 5.2
29/06:30am 14.1 10.4 10.3 78 2.0 SSE 20 39 11 21 1021.2 1021.2 5.2
29/06:00am 14.3 10.3 10.3 77 2.1 S 22 33 12 18 1020.8 1020.8 5.2
29/05:30am 14.2 9.3 10.0 76 2.2 S 26 39 14 21 1020.4 1020.4 5.2
29/05:00am 13.7 8.3 10.9 83 1.5 S 30 43 16 23 1019.8 1019.8 5.2
29/04:32am 13.1 8.0 11.8 92 0.7 S 30 48 16 26 1019.5 1019.5 5.2
29/04:30am 13.0 7.5 11.7 92 0.7 S 32 48 17 26 1019.5 1019.5 5.2
29/04:13am 13.4 8.7 12.1 92 0.7 S 28 46 15 25 1019.3 1019.3 5.2
29/04:00am 13.5 7.9 12.2 92 0.7 S 33 44 18 24 1019.1 1019.1 5.2
29/03:30am 13.8 6.8 12.4 91 0.8 S 41 50 22 27 1019.0 1019.0 4.2
29/03:00am 13.9 10.6 12.8 93 0.6 SSE 22 33 12 18 1018.7 1018.7 4.0
29/02:30am 13.9 11.1 12.6 92 0.7 SSE 19 28 10 15 1018.7 1018.7 2.6
29/02:00am 14.4 9.5 12.4 88 1.1 S 30 39 16 21 1018.6 1018.6 1.0
29/01:30am 14.2 11.8 12.8 91 0.8 SSW 17 32 9 17 1018.4 1018.4 1.0
29/01:00am 14.2 11.3 12.8 91 0.8 SSW 20 32 11 17 1018.4 1018.4 1.0
29/12:30am 14.5 11.6 12.9 90 0.9 SSW 20 28 11 15 1018.3 1018.3 1.0
29/12:00am 14.8 11.9 12.8 88 1.1 SSW 20 35 11 19 1018.0 1018.0 1.0
 
Date/Time
EST
Temp
°C
App
Temp
°C
Dew
Point
°C
Rel
Hum
%
Delta-T
°C
Wind Press
QNH
hPa
Press
MSL
hPa
Rain since
9am
mm
Dir  Spd
km/h
Gust
km/h
Spd
kts
Gust
kts
28/11:30pm 15.1 12.1 12.4 84 1.5 S 20 30 11 16 1018.0 1018.0 1.0
28/11:00pm 15.1 11.3 12.4 84 1.5 S 24 30 13 16 1017.6 1017.6 1.0
28/10:30pm 15.1 11.3 12.4 84 1.5 S 24 28 13 15 1017.6 1017.6 1.0
28/10:00pm 15.1 12.1 12.6 85 1.4 S 20 24 11 13 1017.7 1017.7 1.0
28/09:30pm 15.1 12.3 12.6 85 1.4 S 19 24 10 13 1017.5 1017.5 1.0
28/09:00pm 15.0 13.8 12.7 86 1.3 S 11 17 6 9 1017.4 1017.4 1.0
28/08:30pm 15.0 14.7 12.7 86 1.3 S 6 13 3 7 1017.3 1017.3 1.0
28/08:00pm 15.1 13.5 12.8 86 1.3 S 13 20 7 11 1017.1 1017.1 1.0
28/07:30pm 15.1 14.3 12.8 86 1.3 SE 9 17 5 9 1016.8 1016.8 1.0
28/07:00pm 14.8 14.2 12.3 85 1.4 SSE 7 13 4 7 1016.4 1016.4 1.0
28/06:30pm 14.9 14.6 12.8 87 1.2 SSE 6 11 3 6 1016.0 1016.0 1.0
28/06:00pm 15.0 14.8 12.9 87 1.2 SE 6 13 3 7 1015.7 1015.7 1.0
28/05:30pm 15.2 14.0 12.9 86 1.3 S 11 19 6 10 1015.5 1015.5 1.0
28/05:00pm 15.1 13.7 12.2 83 1.6 SSE 11 17 6 9 1015.3 1015.3 1.0
28/04:30pm 15.1 12.2 12.2 83 1.6 S 19 24 10 13 1014.9 1014.9 1.0
28/04:00pm 15.2 13.9 12.5 84 1.5 SSE 11 20 6 11 1014.7 1014.7 1.0
28/03:30pm 15.3 14.4 12.6 84 1.5 SSE 9 24 5 13 1014.4 1014.4 1.0
28/03:00pm 15.3 14.4 12.6 84 1.5 SSE 9 20 5 11 1014.3 1014.3 1.0
28/02:30pm 15.3 14.5 13.0 86 1.3 SE 9 19 5 10 1014.2 1014.2 1.0
28/02:00pm 15.1 13.6 13.1 88 1.1 SE 13 22 7 12 1014.1 1014.1 1.0
28/01:30pm 14.8 12.8 12.7 87 1.2 SE 15 30 8 16 1014.0 1014.0 0.8
28/01:00pm 14.9 13.8 13.1 89 1.0 SE 11 20 6 11 1014.0 1014.0 0.8

Other formats

Comma delimited format used in spreadsheet applications
http://www.bom.gov.au/fwo/IDV60801/IDV60801.94935.axf

JavaScript Object Notation format (JSON) in row-major order
http://www.bom.gov.au/fwo/IDV60801/IDV60801.94935.json

Data quality

Most of these data are generated automatically and are frequently updated. Quality checks on data are not normally performed. It is possible for incorrect values to appear. Refer to information at About Latest Weather Observations and please check the disclaimer before using these data.